createdAt,value
2022-10-10T00:01:13.652Z,14.55
2022-10-10T00:03:40.815Z,12.63
2022-10-10T00:06:08.598Z,11.63
2022-10-10T00:08:36.100Z,11.50
2022-10-10T00:11:04.211Z,13.57
2022-10-10T00:13:32.107Z,12.40
2022-10-10T00:15:59.292Z,13.13
2022-10-10T00:18:26.322Z,13.75
2022-10-10T00:20:53.782Z,11.88
2022-10-10T00:23:21.346Z,11.90
2022-10-10T00:25:49.145Z,11.52
2022-10-10T00:28:16.753Z,11.55
2022-10-10T00:30:44.298Z,12.40
2022-10-10T00:33:11.966Z,11.18
2022-10-10T00:35:39.259Z,11.55
2022-10-10T00:38:06.151Z,10.80
2022-10-10T00:40:33.218Z,10.75
2022-10-10T00:43:00.640Z,10.27
2022-10-10T00:45:36.055Z,11.07
2022-10-10T00:48:05.218Z,10.88
2022-10-10T00:50:35.554Z,11.50
2022-10-10T00:53:05.623Z,11.30
2022-10-10T00:55:33.154Z,11.32
2022-10-10T00:58:00.133Z,11.07
2022-10-10T01:00:27.150Z,12.70
2022-10-10T01:02:54.150Z,12.20
2022-10-10T01:05:21.362Z,12.35
2022-10-10T01:07:48.441Z,11.20
2022-10-10T01:10:19.102Z,10.70
2022-10-10T01:13:04.302Z,10.80
2022-10-10T01:15:59.773Z,11.25
2022-10-10T01:18:41.751Z,10.35
2022-10-10T01:21:43.776Z,10.18
2022-10-10T01:24:28.463Z,10.05
2022-10-10T01:27:01.419Z,9.75
2022-10-10T01:29:38.078Z,11.02
2022-10-10T01:32:35.443Z,10.50
2022-10-10T01:35:26.039Z,9.15
2022-10-10T01:37:55.510Z,9.70
2022-10-10T01:40:22.433Z,10.02
2022-10-10T01:42:53.600Z,10.02
2022-10-10T01:45:21.199Z,9.88
2022-10-10T01:47:49.388Z,10.20
2022-10-10T01:50:21.177Z,9.70
2022-10-10T01:53:01.452Z,9.93
2022-10-10T01:55:51.340Z,9.65
2022-10-10T01:58:39.692Z,9.13
2022-10-10T02:01:25.542Z,9.70
2022-10-10T02:04:18.657Z,9.75
2022-10-10T02:06:55.535Z,9.30
2022-10-10T02:09:28.949Z,9.50
2022-10-10T02:11:58.539Z,9.40
2022-10-10T02:14:31.061Z,10.77
2022-10-10T02:17:00.407Z,10.13
2022-10-10T02:19:28.815Z,10.32
2022-10-10T02:21:56.450Z,12.30
2022-10-10T02:24:24.988Z,10.68
2022-10-10T02:27:09.455Z,10.50
2022-10-10T02:29:38.775Z,11.75
2022-10-10T02:32:07.681Z,12.05
2022-10-10T02:34:37.944Z,12.00
2022-10-10T02:37:10.704Z,11.80
2022-10-10T02:39:42.151Z,11.52
2022-10-10T02:42:12.144Z,11.20
2022-10-10T02:44:39.971Z,11.40
2022-10-10T02:47:06.953Z,11.68
2022-10-10T02:49:34.996Z,10.95
2022-10-10T02:52:03.131Z,10.75
2022-10-10T02:54:30.094Z,10.00
2022-10-10T02:56:56.979Z,12.35
2022-10-10T02:59:23.901Z,10.65
2022-10-10T03:01:50.961Z,10.43
2022-10-10T03:04:18.059Z,10.70
2022-10-10T03:06:45.379Z,11.35
2022-10-10T03:09:12.305Z,10.65
2022-10-10T03:11:39.224Z,11.02
2022-10-10T03:14:06.133Z,11.93
2022-10-10T03:16:33.352Z,11.68
2022-10-10T03:19:00.487Z,11.48
2022-10-10T03:21:27.411Z,11.93
2022-10-10T03:23:54.306Z,10.98
2022-10-10T03:26:21.233Z,13.20
2022-10-10T03:28:48.127Z,11.93
2022-10-10T03:31:15.199Z,11.73
2022-10-10T03:33:42.293Z,10.80
2022-10-10T03:36:09.247Z,10.05
2022-10-10T03:38:36.270Z,10.63
2022-10-10T03:41:03.168Z,10.40
2022-10-10T03:43:30.075Z,11.52
2022-10-10T03:45:57.100Z,11.43
2022-10-10T03:48:23.996Z,11.68
2022-10-10T03:50:50.942Z,10.52
2022-10-10T03:53:18.047Z,9.52
2022-10-10T03:55:45.059Z,10.93
2022-10-10T03:58:12.027Z,10.85
2022-10-10T04:00:39.122Z,9.02
2022-10-10T04:03:06.709Z,10.77
2022-10-10T04:05:37.741Z,10.20
2022-10-10T04:08:06.272Z,9.30
2022-10-10T04:10:33.207Z,9.35
2022-10-10T04:13:00.445Z,10.73
2022-10-10T04:15:27.491Z,10.43
2022-10-10T04:17:54.416Z,10.55
2022-10-10T04:20:21.317Z,10.20
2022-10-10T04:22:48.594Z,10.43
2022-10-10T04:25:15.870Z,10.02
2022-10-10T04:27:44.039Z,9.55
2022-10-10T04:30:11.397Z,9.35
2022-10-10T04:32:38.433Z,9.82
2022-10-10T04:35:06.218Z,9.70
2022-10-10T04:37:34.265Z,9.95
2022-10-10T04:40:01.249Z,9.55
2022-10-10T04:42:28.250Z,10.82
2022-10-10T04:44:55.133Z,9.63
2022-10-10T04:47:22.257Z,10.45
2022-10-10T04:49:49.247Z,9.90
2022-10-10T04:52:16.408Z,11.32
2022-10-10T04:54:43.370Z,10.70
2022-10-10T04:57:10.297Z,11.73
2022-10-10T04:59:37.304Z,10.85
2022-10-10T05:02:04.321Z,12.40
2022-10-10T05:04:31.281Z,11.40
2022-10-10T05:06:58.404Z,10.85
2022-10-10T05:09:25.395Z,11.90
2022-10-10T05:11:52.306Z,10.07
2022-10-10T05:14:19.178Z,10.23
2022-10-10T05:16:46.249Z,11.32
2022-10-10T05:19:13.269Z,12.65
2022-10-10T05:21:40.178Z,11.93
2022-10-10T05:24:07.210Z,13.45
2022-10-10T05:26:34.210Z,12.52
2022-10-10T05:29:01.808Z,13.23
2022-10-10T05:31:29.073Z,14.73
2022-10-10T05:33:56.008Z,13.43
2022-10-10T05:36:22.928Z,14.40
2022-10-10T05:38:49.840Z,13.68
2022-10-10T05:41:16.716Z,15.85
2022-10-10T05:43:43.598Z,15.48
2022-10-10T05:46:10.959Z,16.20
2022-10-10T05:48:37.931Z,15.82
2022-10-10T05:51:06.341Z,17.35
2022-10-10T05:53:33.466Z,18.83
2022-10-10T05:56:03.487Z,19.50
2022-10-10T05:58:30.922Z,21.23
2022-10-10T06:01:05.797Z,21.40
2022-10-10T06:03:33.148Z,23.27
2022-10-10T06:06:00.691Z,21.70
2022-10-10T06:08:27.603Z,23.80
2022-10-10T06:10:54.508Z,24.70
2022-10-10T06:13:24.367Z,27.38
2022-10-10T06:19:39.031Z,25.25
2022-10-10T06:22:05.971Z,27.75
2022-10-10T06:24:32.862Z,26.45
2022-10-10T06:26:59.817Z,26.08
2022-10-10T06:29:26.956Z,26.48
2022-10-10T06:31:53.884Z,27.42
2022-10-10T06:34:20.811Z,26.08
2022-10-10T06:36:50.341Z,25.85
2022-10-10T06:39:18.067Z,24.35
2022-10-10T06:41:44.919Z,22.77
2022-10-10T06:44:12.318Z,20.85
2022-10-10T06:46:39.202Z,22.80
2022-10-10T06:49:06.482Z,20.27
2022-10-10T06:51:33.725Z,19.58
2022-10-10T06:54:00.735Z,30.30
2022-10-10T06:56:28.063Z,22.23
2022-10-10T06:58:55.430Z,23.00
2022-10-10T07:01:24.185Z,19.67
2022-10-10T07:03:51.242Z,17.33
2022-10-10T07:06:18.519Z,16.55
2022-10-10T07:08:45.609Z,16.25
2022-10-10T07:11:12.750Z,15.05
2022-10-10T07:13:40.552Z,15.38
2022-10-10T07:16:07.627Z,14.23
2022-10-10T07:18:36.805Z,12.55
2022-10-10T07:21:04.877Z,13.25
2022-10-10T07:23:33.035Z,12.82
2022-10-10T07:26:06.664Z,11.35
2022-10-10T07:28:33.884Z,11.87
2022-10-10T07:31:06.924Z,11.18
2022-10-10T07:33:47.409Z,10.07
2022-10-10T07:36:16.800Z,11.07
2022-10-10T07:38:43.901Z,10.48
2022-10-10T07:41:13.446Z,10.75
2022-10-10T07:43:40.758Z,10.70
2022-10-10T07:46:15.965Z,9.18
2022-10-10T07:48:42.992Z,9.95
2022-10-10T07:51:10.859Z,9.60
2022-10-10T07:53:38.381Z,9.10
2022-10-10T07:56:08.638Z,9.15
2022-10-10T07:58:36.213Z,9.50
2022-10-10T08:01:08.802Z,10.23
2022-10-10T08:03:36.505Z,9.80
2022-10-10T08:06:05.361Z,9.77
2022-10-10T08:08:34.522Z,8.85
2022-10-10T08:11:04.141Z,9.27
2022-10-10T08:13:31.171Z,9.40
2022-10-10T08:15:58.095Z,9.48
2022-10-10T08:18:25.048Z,8.65
2022-10-10T08:21:06.836Z,11.30
2022-10-10T08:23:33.920Z,9.50
2022-10-10T08:26:02.708Z,9.80
2022-10-10T08:28:29.883Z,8.73
2022-10-10T08:30:57.127Z,9.00
2022-10-10T08:33:27.972Z,9.55
2022-10-10T08:35:55.348Z,9.25
2022-10-10T08:38:22.358Z,9.00
2022-10-10T08:40:53.488Z,9.30
2022-10-10T08:43:38.428Z,10.30
2022-10-10T08:46:31.401Z,8.32
2022-10-10T08:49:01.179Z,8.27
2022-10-10T08:51:32.586Z,8.18
2022-10-10T08:54:04.448Z,8.30
2022-10-10T08:56:34.817Z,9.07
2022-10-10T08:59:14.965Z,7.57
2022-10-10T09:02:17.630Z,7.57
2022-10-10T09:04:32.595Z,7.28
2022-10-10T09:07:18.748Z,7.03
2022-10-10T09:10:07.098Z,7.15
2022-10-10T09:13:02.865Z,6.65
2022-10-10T09:15:59.241Z,7.22
2022-10-10T09:18:38.341Z,7.22
2022-10-10T09:21:20.326Z,6.57
2022-10-10T09:23:47.260Z,7.28
2022-10-10T09:26:18.366Z,6.53
2022-10-10T09:28:58.999Z,6.53
2022-10-10T09:31:26.016Z,5.95
2022-10-10T09:34:15.452Z,5.50
2022-10-10T09:36:43.032Z,5.28
2022-10-10T09:39:35.694Z,5.20
2022-10-10T09:42:09.895Z,6.05
2022-10-10T09:44:38.335Z,5.85
2022-10-10T09:47:05.384Z,4.82
2022-10-10T09:49:33.571Z,4.97
2022-10-10T09:52:21.700Z,5.53
2022-10-10T09:54:49.443Z,4.90
2022-10-10T09:57:24.650Z,4.90
2022-10-10T09:59:51.623Z,4.97
2022-10-10T10:02:24.528Z,4.57
2022-10-10T10:08:35.557Z,4.32
2022-10-10T10:11:04.496Z,4.50
2022-10-10T10:13:37.268Z,4.88
2022-10-10T10:16:11.402Z,4.55
2022-10-10T10:18:46.643Z,4.35
2022-10-10T10:21:16.393Z,4.25
2022-10-10T10:23:49.339Z,4.45
2022-10-10T10:26:21.462Z,4.38
2022-10-10T10:28:50.043Z,4.85
2022-10-10T10:31:23.365Z,5.47
2022-10-10T10:34:26.955Z,4.40
2022-10-10T10:37:05.400Z,4.00
2022-10-10T10:40:04.458Z,4.28
2022-10-10T10:43:09.135Z,4.25
2022-10-10T10:45:42.208Z,5.65
2022-10-10T10:48:28.072Z,4.88
2022-10-10T10:51:39.083Z,6.10
2022-10-10T10:54:40.389Z,3.95
2022-10-10T10:58:04.609Z,3.88
2022-10-10T11:01:28.666Z,5.38
2022-10-10T11:05:17.912Z,4.03
2022-10-10T11:06:49.120Z,6.03
2022-10-10T11:09:48.974Z,4.68
2022-10-10T11:12:43.977Z,5.72
2022-10-10T11:15:54.163Z,5.18
2022-10-10T11:18:26.553Z,3.95
2022-10-10T11:21:06.547Z,3.95
2022-10-10T11:23:44.711Z,4.68
2022-10-10T11:26:23.644Z,4.30
2022-10-10T11:29:05.971Z,5.68
2022-10-10T11:32:00.847Z,4.18
2022-10-10T11:34:38.506Z,3.63
2022-10-10T11:37:13.650Z,4.53
2022-10-10T11:39:52.464Z,4.95
2022-10-10T11:42:32.681Z,3.88
2022-10-10T11:45:02.480Z,3.85
2022-10-10T11:47:43.931Z,4.15
2022-10-10T11:50:30.842Z,3.88
2022-10-10T11:53:19.740Z,4.38
2022-10-10T11:55:58.850Z,4.90
2022-10-10T11:58:32.182Z,5.05
2022-10-10T12:01:23.690Z,5.10
2022-10-10T12:03:52.607Z,3.80
2022-10-10T12:06:28.022Z,4.40
2022-10-10T12:09:06.754Z,4.57
2022-10-10T12:11:53.169Z,5.90
2022-10-10T12:14:22.568Z,5.40
2022-10-10T12:16:49.732Z,5.55
2022-10-10T12:19:23.553Z,5.88
2022-10-10T12:21:58.037Z,4.47
2022-10-10T12:24:28.382Z,4.65
2022-10-10T12:26:55.396Z,3.85
2022-10-10T12:29:41.256Z,4.60
2022-10-10T12:32:14.415Z,5.05
2022-10-10T12:34:56.507Z,4.88
2022-10-10T12:37:35.277Z,4.80
2022-10-10T12:40:18.812Z,5.00
2022-10-10T12:42:48.413Z,5.20
2022-10-10T12:45:38.357Z,4.60
2022-10-10T12:48:17.934Z,4.25
2022-10-10T12:51:01.572Z,4.35
2022-10-10T12:57:43.483Z,4.57
2022-10-10T13:00:25.667Z,4.55
2022-10-10T13:02:56.300Z,4.57
2022-10-10T13:05:37.974Z,4.45
2022-10-10T13:08:12.172Z,4.43
2022-10-10T13:10:39.338Z,4.20
2022-10-10T13:13:20.748Z,4.65
2022-10-10T13:15:59.559Z,4.47
2022-10-10T13:18:41.310Z,4.25
2022-10-10T13:21:12.742Z,4.88
2022-10-10T13:26:40.111Z,4.80
2022-10-10T13:29:30.608Z,4.40
2022-10-10T13:32:12.104Z,5.22
2022-10-10T13:34:43.858Z,5.50
2022-10-10T13:37:16.943Z,6.95
2022-10-10T13:39:44.397Z,6.25
2022-10-10T13:42:36.488Z,6.90
2022-10-10T13:45:29.175Z,7.20
2022-10-10T13:47:57.504Z,6.13
2022-10-10T13:50:44.599Z,4.97
2022-10-10T13:53:30.410Z,5.22
2022-10-10T13:56:03.030Z,4.70
2022-10-10T13:58:39.248Z,6.13
2022-10-10T14:01:06.542Z,9.02
2022-10-10T14:03:34.523Z,10.32
2022-10-10T14:06:01.706Z,6.28
2022-10-10T14:08:33.804Z,5.78
2022-10-10T14:11:07.037Z,13.00
2022-10-10T14:13:36.504Z,22.60
2022-10-10T14:16:28.649Z,10.38
2022-10-10T14:18:55.635Z,35.35
2022-10-10T14:21:22.510Z,6.20
2022-10-10T14:23:49.572Z,5.40
2022-10-10T14:26:20.102Z,4.78
2022-10-10T14:28:47.063Z,5.50
2022-10-10T14:31:14.060Z,5.85
2022-10-10T14:33:40.962Z,5.43
2022-10-10T14:36:08.123Z,5.00
2022-10-10T14:38:35.075Z,5.45
2022-10-10T14:41:02.516Z,5.07
2022-10-10T14:43:29.812Z,5.38
2022-10-10T14:45:56.838Z,5.72
2022-10-10T14:48:23.965Z,5.63
2022-10-10T14:50:51.407Z,5.35
2022-10-10T14:53:18.896Z,5.55
2022-10-10T14:55:46.626Z,5.60
2022-10-10T14:58:22.270Z,6.70
2022-10-10T15:00:50.799Z,5.95
2022-10-10T15:03:17.832Z,6.00
2022-10-10T15:05:44.798Z,5.75
2022-10-10T15:08:16.739Z,6.25
2022-10-10T15:10:44.402Z,6.22
2022-10-10T15:13:12.798Z,6.18
2022-10-10T15:15:39.907Z,6.47
2022-10-10T15:18:20.929Z,6.20
2022-10-10T15:20:54.089Z,6.85
2022-10-10T15:23:21.442Z,8.15
2022-10-10T15:25:48.315Z,6.20
2022-10-10T15:28:15.320Z,8.73
2022-10-10T15:30:45.820Z,6.25
2022-10-10T15:33:12.750Z,7.20
2022-10-10T15:36:03.863Z,7.53
2022-10-10T15:38:27.254Z,8.25
2022-10-10T15:41:06.541Z,7.72
2022-10-10T15:43:44.021Z,8.65
2022-10-10T15:46:11.183Z,7.90
2022-10-10T15:48:38.083Z,7.45
2022-10-10T15:51:08.967Z,8.02
2022-10-10T15:53:37.228Z,7.22
2022-10-10T15:56:15.862Z,7.65
2022-10-10T15:58:43.467Z,8.70
2022-10-10T16:01:19.064Z,7.82
2022-10-10T16:03:47.676Z,7.97
2022-10-10T16:06:15.726Z,7.57
2022-10-10T16:08:43.482Z,7.88
2022-10-10T16:11:14.002Z,8.48
2022-10-10T16:13:42.513Z,8.60
2022-10-10T16:16:11.495Z,7.70
2022-10-10T16:18:40.656Z,8.98
2022-10-10T16:21:13.719Z,8.55
2022-10-10T16:23:40.676Z,7.30
2022-10-10T16:26:16.505Z,8.20
2022-10-10T16:28:44.131Z,8.95
2022-10-10T16:31:14.794Z,8.60
2022-10-10T16:33:43.007Z,8.45
2022-10-10T16:36:12.383Z,8.35
2022-10-10T16:38:39.719Z,8.07
2022-10-10T16:41:16.058Z,8.52
2022-10-10T16:43:55.943Z,8.55
2022-10-10T16:46:25.593Z,9.07
2022-10-10T16:48:53.191Z,8.23
2022-10-10T16:51:23.751Z,8.68
2022-10-10T16:53:51.987Z,8.35
2022-10-10T16:56:21.097Z,8.45
2022-10-10T16:58:48.299Z,8.45
2022-10-10T17:01:20.820Z,8.55
2022-10-10T17:03:48.962Z,8.88
2022-10-10T17:06:21.221Z,9.13
2022-10-10T17:08:50.230Z,9.18
2022-10-10T17:11:18.782Z,8.18
2022-10-10T17:13:45.715Z,8.05
2022-10-10T17:16:53.617Z,7.60
2022-10-10T17:19:03.748Z,7.50
2022-10-10T17:21:31.673Z,7.80
2022-10-10T17:23:59.025Z,9.93
2022-10-10T17:26:27.941Z,8.30
2022-10-10T17:28:56.743Z,7.95
2022-10-10T17:31:25.010Z,7.63
2022-10-10T17:33:54.339Z,7.43
2022-10-10T17:36:24.245Z,7.55
2022-10-10T17:38:51.936Z,7.53
2022-10-10T17:41:20.310Z,7.15
2022-10-10T17:43:47.426Z,7.07
2022-10-10T17:46:36.807Z,6.65
2022-10-10T17:49:06.582Z,6.15
2022-10-10T17:51:34.899Z,6.35
2022-10-10T17:54:03.429Z,6.63
2022-10-10T17:56:30.698Z,6.68
2022-10-10T17:58:59.665Z,6.32
2022-10-10T18:01:26.671Z,6.70
2022-10-10T18:03:53.865Z,5.90
2022-10-10T18:06:22.964Z,6.15
2022-10-10T18:08:51.601Z,6.85
2022-10-10T18:11:24.409Z,6.75
2022-10-10T18:13:52.163Z,6.22
2022-10-10T18:16:21.966Z,6.70
2022-10-10T18:18:51.953Z,7.57
2022-10-10T18:21:23.597Z,7.45
2022-10-10T18:23:51.172Z,7.18
2022-10-10T18:26:24.080Z,6.80
2022-10-10T18:28:52.720Z,7.32
2022-10-10T18:31:47.594Z,7.20
2022-10-10T18:34:14.572Z,7.32
2022-10-10T18:36:45.341Z,7.53
2022-10-10T18:39:15.323Z,7.00
2022-10-10T18:41:42.522Z,6.90
2022-10-10T18:44:13.406Z,6.90
2022-10-10T18:46:40.530Z,7.60
2022-10-10T18:49:11.010Z,7.35
2022-10-10T18:55:31.145Z,7.15
2022-10-10T18:57:59.165Z,7.70
2022-10-10T19:00:26.202Z,7.25
2022-10-10T19:02:53.480Z,6.75
2022-10-10T19:05:20.553Z,7.07
2022-10-10T19:07:47.459Z,7.95
2022-10-10T19:10:14.449Z,7.35
2022-10-10T19:12:46.454Z,7.03
2022-10-10T19:15:15.009Z,6.53
2022-10-10T19:17:42.117Z,7.05
2022-10-10T19:20:09.512Z,6.60
2022-10-10T19:22:36.503Z,6.32
2022-10-10T19:25:03.961Z,6.40
2022-10-10T19:27:31.066Z,7.00
2022-10-10T19:29:59.191Z,6.05
2022-10-10T19:32:27.718Z,6.60
2022-10-10T19:34:54.720Z,6.95
2022-10-10T19:37:21.861Z,7.10
2022-10-10T19:39:48.862Z,5.97
2022-10-10T19:42:15.912Z,6.57
2022-10-10T19:48:31.557Z,6.10
2022-10-10T19:50:59.339Z,5.63
2022-10-10T19:53:26.410Z,5.75
2022-10-10T19:56:06.095Z,6.38
2022-10-10T19:58:33.627Z,6.22
2022-10-10T20:01:00.791Z,5.60
2022-10-10T20:03:27.811Z,5.93
2022-10-10T20:06:00.708Z,6.13
2022-10-10T20:08:28.351Z,5.50
2022-10-10T20:10:55.270Z,5.78
2022-10-10T20:13:22.438Z,5.38
2022-10-10T20:15:50.130Z,5.93
2022-10-10T20:18:19.236Z,6.07
2022-10-10T20:20:51.975Z,5.68
2022-10-10T20:23:22.000Z,5.70
2022-10-10T20:25:48.994Z,5.50
2022-10-10T20:28:18.193Z,6.10
2022-10-10T20:30:50.496Z,5.60
2022-10-10T20:33:19.511Z,5.47
2022-10-10T20:35:48.526Z,6.05
2022-10-10T20:38:17.106Z,5.32
2022-10-10T20:40:45.251Z,5.40
2022-10-10T20:43:12.713Z,6.22
2022-10-10T20:45:40.270Z,5.85
2022-10-10T20:48:07.776Z,4.90
2022-10-10T20:50:38.434Z,5.47
2022-10-10T20:53:06.666Z,5.95
2022-10-10T20:55:34.060Z,6.07
2022-10-10T20:58:01.035Z,5.47
2022-10-10T21:00:27.970Z,5.65
2022-10-10T21:02:56.501Z,5.47
2022-10-10T21:05:23.987Z,5.82
2022-10-10T21:07:51.140Z,5.88
2022-10-10T21:10:18.065Z,6.38
2022-10-10T21:12:45.015Z,5.32
2022-10-10T21:15:12.071Z,5.75
2022-10-10T21:17:39.173Z,5.00
2022-10-10T21:20:07.225Z,5.47
2022-10-10T21:22:34.252Z,5.55
2022-10-10T21:25:01.191Z,5.88
2022-10-10T21:27:28.095Z,5.82
2022-10-10T21:29:54.988Z,6.00
2022-10-10T21:32:21.880Z,6.15
2022-10-10T21:34:51.926Z,5.60
2022-10-10T21:37:21.202Z,5.20
2022-10-10T21:39:48.321Z,5.03
2022-10-10T21:42:15.195Z,5.43
2022-10-10T21:44:42.201Z,5.60
2022-10-10T21:47:09.150Z,5.43
2022-10-10T21:49:36.075Z,5.10
2022-10-10T21:52:02.967Z,6.00
2022-10-10T21:54:29.917Z,5.07
2022-10-10T21:56:56.855Z,5.22
2022-10-10T21:59:26.458Z,4.93
2022-10-10T22:01:53.585Z,5.60
2022-10-10T22:04:20.520Z,5.70
2022-10-10T22:06:47.416Z,4.65
2022-10-10T22:09:14.299Z,5.65
2022-10-10T22:11:41.308Z,5.25
2022-10-10T22:14:08.916Z,5.35
2022-10-10T22:16:36.139Z,5.80
2022-10-10T22:19:03.622Z,6.10
2022-10-10T22:21:32.388Z,5.70
2022-10-10T22:24:01.989Z,5.97
2022-10-10T22:26:30.353Z,5.43
2022-10-10T22:28:57.565Z,5.30
2022-10-10T22:31:24.550Z,6.03
2022-10-10T22:33:51.560Z,5.78
2022-10-10T22:36:18.520Z,5.82
2022-10-10T22:38:45.803Z,5.85
2022-10-10T22:41:13.522Z,5.55
2022-10-10T22:43:40.663Z,6.10
2022-10-10T22:46:08.420Z,5.60
2022-10-10T22:48:35.955Z,5.18
2022-10-10T22:51:14.974Z,5.55
2022-10-10T22:53:43.067Z,5.85
2022-10-10T22:56:11.418Z,5.63
2022-10-10T22:58:38.343Z,5.53
2022-10-10T23:01:11.831Z,6.70
2022-10-10T23:03:38.802Z,6.13
2022-10-10T23:06:06.073Z,5.53
2022-10-10T23:08:33.674Z,5.68
2022-10-10T23:11:01.218Z,5.60
2022-10-10T23:13:28.541Z,6.00
2022-10-10T23:15:55.523Z,5.55
2022-10-10T23:18:22.464Z,6.50
2022-10-10T23:20:50.074Z,5.47
2022-10-10T23:23:18.357Z,6.10
2022-10-10T23:25:47.521Z,6.30
2022-10-10T23:28:15.865Z,5.80
2022-10-10T23:30:44.794Z,7.25
2022-10-10T23:33:12.665Z,5.80
2022-10-10T23:35:39.692Z,5.80
2022-10-10T23:38:06.600Z,6.57
2022-10-10T23:40:34.222Z,6.68
2022-10-10T23:43:01.263Z,6.75
2022-10-10T23:45:28.307Z,6.55
2022-10-10T23:47:55.254Z,6.47
2022-10-10T23:50:22.168Z,7.15
2022-10-10T23:52:49.024Z,6.10
2022-10-10T23:55:15.964Z,6.35
2022-10-10T23:57:42.834Z,7.85
